sensor_id;sensor_type;location;lat;lon;timestamp;P1;durP1;ratioP1;P2;durP2;ratioP2
23406;SDS011;11876;53.438;18.942;2023-03-01T00:02:30;28.90;;;16.35;;
23406;SDS011;11876;53.438;18.942;2023-03-01T00:05:32;27.20;;;16.27;;
23406;SDS011;11876;53.438;18.942;2023-03-01T00:08:35;26.45;;;16.27;;
23406;SDS011;11876;53.438;18.942;2023-03-01T00:11:37;29.15;;;16.65;;
23406;SDS011;11876;53.438;18.942;2023-03-01T00:14:40;27.13;;;16.52;;
23406;SDS011;11876;53.438;18.942;2023-03-01T00:17:42;52.72;;;23.80;;
23406;SDS011;11876;53.438;18.942;2023-03-01T00:20:51;27.75;;;14.95;;
23406;SDS011;11876;53.438;18.942;2023-03-01T00:23:54;23.17;;;13.30;;
23406;SDS011;11876;53.438;18.942;2023-03-01T00:26:57;25.08;;;14.15;;
23406;SDS011;11876;53.438;18.942;2023-03-01T00:30:00;23.40;;;13.32;;
23406;SDS011;11876;53.438;18.942;2023-03-01T00:33:03;21.95;;;13.07;;
23406;SDS011;11876;53.438;18.942;2023-03-01T00:36:05;20.77;;;12.65;;
23406;SDS011;11876;53.438;18.942;2023-03-01T00:39:12;22.50;;;13.18;;
23406;SDS011;11876;53.438;18.942;2023-03-01T00:42:16;21.33;;;11.88;;
23406;SDS011;11876;53.438;18.942;2023-03-01T00:45:19;22.23;;;11.40;;
23406;SDS011;11876;53.438;18.942;2023-03-01T00:48:21;21.65;;;9.88;;
23406;SDS011;11876;53.438;18.942;2023-03-01T00:51:25;18.75;;;10.07;;
23406;SDS011;11876;53.438;18.942;2023-03-01T00:54:30;18.02;;;9.48;;
23406;SDS011;11876;53.438;18.942;2023-03-01T00:57:33;11.98;;;6.57;;
23406;SDS011;11876;53.438;18.942;2023-03-01T01:00:36;15.27;;;9.32;;
23406;SDS011;11876;53.438;18.942;2023-03-01T01:03:38;15.80;;;9.30;;
23406;SDS011;11876;53.438;18.942;2023-03-01T01:06:45;13.63;;;7.47;;
23406;SDS011;11876;53.438;18.942;2023-03-01T01:09:48;17.70;;;7.95;;
23406;SDS011;11876;53.438;18.942;2023-03-01T01:12:50;11.30;;;6.53;;
23406;SDS011;11876;53.438;18.942;2023-03-01T01:15:53;15.90;;;9.43;;
23406;SDS011;11876;53.438;18.942;2023-03-01T01:18:56;14.53;;;9.93;;
23406;SDS011;11876;53.438;18.942;2023-03-01T01:21:59;20.67;;;11.32;;
23406;SDS011;11876;53.438;18.942;2023-03-01T01:25:01;19.33;;;11.52;;
23406;SDS011;11876;53.438;18.942;2023-03-01T01:28:03;22.88;;;12.35;;
23406;SDS011;11876;53.438;18.942;2023-03-01T01:31:06;15.15;;;10.13;;
23406;SDS011;11876;53.438;18.942;2023-03-01T01:34:12;12.50;;;8.63;;
23406;SDS011;11876;53.438;18.942;2023-03-01T01:37:17;15.73;;;9.60;;
23406;SDS011;11876;53.438;18.942;2023-03-01T01:40:20;20.05;;;11.50;;
23406;SDS011;11876;53.438;18.942;2023-03-01T01:43:27;18.45;;;11.55;;
23406;SDS011;11876;53.438;18.942;2023-03-01T01:46:33;22.23;;;11.75;;
23406;SDS011;11876;53.438;18.942;2023-03-01T01:49:42;21.08;;;11.73;;
23406;SDS011;11876;53.438;18.942;2023-03-01T01:52:47;17.17;;;10.82;;
23406;SDS011;11876;53.438;18.942;2023-03-01T01:58:59;21.48;;;13.10;;
23406;SDS011;11876;53.438;18.942;2023-03-01T02:02:03;22.27;;;13.50;;
23406;SDS011;11876;53.438;18.942;2023-03-01T02:05:15;19.17;;;10.90;;
23406;SDS011;11876;53.438;18.942;2023-03-01T02:08:23;21.42;;;13.65;;
23406;SDS011;11876;53.438;18.942;2023-03-01T02:11:30;25.85;;;15.18;;
23406;SDS011;11876;53.438;18.942;2023-03-01T02:14:33;26.73;;;16.00;;
23406;SDS011;11876;53.438;18.942;2023-03-01T02:17:36;29.98;;;17.00;;
23406;SDS011;11876;53.438;18.942;2023-03-01T02:20:57;28.35;;;15.07;;
23406;SDS011;11876;53.438;18.942;2023-03-01T02:24:19;30.58;;;18.13;;
23406;SDS011;11876;53.438;18.942;2023-03-01T02:27:26;33.67;;;17.33;;
23406;SDS011;11876;53.438;18.942;2023-03-01T02:30:35;30.35;;;16.70;;
23406;SDS011;11876;53.438;18.942;2023-03-01T02:33:38;23.80;;;13.77;;
23406;SDS011;11876;53.438;18.942;2023-03-01T02:36:45;26.20;;;13.88;;
23406;SDS011;11876;53.438;18.942;2023-03-01T02:39:49;27.65;;;16.88;;
23406;SDS011;11876;53.438;18.942;2023-03-01T02:42:58;29.05;;;17.90;;
23406;SDS011;11876;53.438;18.942;2023-03-01T02:46:05;25.48;;;16.00;;
23406;SDS011;11876;53.438;18.942;2023-03-01T02:49:16;24.48;;;16.13;;
23406;SDS011;11876;53.438;18.942;2023-03-01T02:52:23;25.27;;;15.73;;
23406;SDS011;11876;53.438;18.942;2023-03-01T02:55:47;31.60;;;17.02;;
23406;SDS011;11876;53.438;18.942;2023-03-01T02:58:50;21.20;;;13.13;;
23406;SDS011;11876;53.438;18.942;2023-03-01T03:01:54;26.00;;;16.75;;
23406;SDS011;11876;53.438;18.942;2023-03-01T03:04:58;31.65;;;18.67;;
23406;SDS011;11876;53.438;18.942;2023-03-01T03:08:02;26.73;;;16.92;;
23406;SDS011;11876;53.438;18.942;2023-03-01T03:11:09;25.67;;;16.23;;
23406;SDS011;11876;53.438;18.942;2023-03-01T03:14:12;26.25;;;16.08;;
23406;SDS011;11876;53.438;18.942;2023-03-01T03:17:19;23.17;;;15.70;;
23406;SDS011;11876;53.438;18.942;2023-03-01T03:20:22;27.63;;;15.95;;
23406;SDS011;11876;53.438;18.942;2023-03-01T03:23:26;28.33;;;16.80;;
23406;SDS011;11876;53.438;18.942;2023-03-01T03:26:31;28.33;;;16.95;;
23406;SDS011;11876;53.438;18.942;2023-03-01T03:29:33;29.83;;;17.95;;
23406;SDS011;11876;53.438;18.942;2023-03-01T03:32:36;26.08;;;15.80;;
23406;SDS011;11876;53.438;18.942;2023-03-01T03:35:40;26.15;;;16.33;;
23406;SDS011;11876;53.438;18.942;2023-03-01T03:38:44;28.33;;;18.40;;
23406;SDS011;11876;53.438;18.942;2023-03-01T03:41:47;34.33;;;17.33;;
23406;SDS011;11876;53.438;18.942;2023-03-01T03:44:49;29.80;;;15.68;;
23406;SDS011;11876;53.438;18.942;2023-03-01T03:47:51;28.25;;;16.08;;
23406;SDS011;11876;53.438;18.942;2023-03-01T03:50:55;29.20;;;16.95;;
23406;SDS011;11876;53.438;18.942;2023-03-01T03:53:58;30.95;;;17.60;;
23406;SDS011;11876;53.438;18.942;2023-03-01T03:57:00;31.75;;;17.70;;
23406;SDS011;11876;53.438;18.942;2023-03-01T04:00:03;27.95;;;17.58;;
23406;SDS011;11876;53.438;18.942;2023-03-01T04:03:13;29.50;;;16.88;;
23406;SDS011;11876;53.438;18.942;2023-03-01T04:06:17;28.98;;;17.35;;
23406;SDS011;11876;53.438;18.942;2023-03-01T04:09:19;30.08;;;17.77;;
23406;SDS011;11876;53.438;18.942;2023-03-01T04:12:21;30.50;;;17.60;;
23406;SDS011;11876;53.438;18.942;2023-03-01T04:15:25;25.80;;;14.10;;
23406;SDS011;11876;53.438;18.942;2023-03-01T04:18:28;31.63;;;18.13;;
23406;SDS011;11876;53.438;18.942;2023-03-01T04:21:32;32.75;;;18.83;;
23406;SDS011;11876;53.438;18.942;2023-03-01T04:24:35;29.85;;;17.77;;
23406;SDS011;11876;53.438;18.942;2023-03-01T04:27:37;28.98;;;16.90;;
23406;SDS011;11876;53.438;18.942;2023-03-01T04:30:40;32.95;;;18.88;;
23406;SDS011;11876;53.438;18.942;2023-03-01T04:33:43;32.25;;;18.15;;
23406;SDS011;11876;53.438;18.942;2023-03-01T04:36:47;27.38;;;18.08;;
23406;SDS011;11876;53.438;18.942;2023-03-01T04:39:50;27.75;;;17.58;;
23406;SDS011;11876;53.438;18.942;2023-03-01T04:42:53;20.70;;;12.85;;
23406;SDS011;11876;53.438;18.942;2023-03-01T04:45:59;31.15;;;16.98;;
23406;SDS011;11876;53.438;18.942;2023-03-01T04:49:04;25.75;;;15.70;;
23406;SDS011;11876;53.438;18.942;2023-03-01T04:52:06;33.75;;;17.35;;
23406;SDS011;11876;53.438;18.942;2023-03-01T04:55:10;30.88;;;16.52;;
23406;SDS011;11876;53.438;18.942;2023-03-01T04:58:12;26.85;;;16.73;;
23406;SDS011;11876;53.438;18.942;2023-03-01T05:01:16;28.35;;;16.80;;
23406;SDS011;11876;53.438;18.942;2023-03-01T05:04:20;28.98;;;17.75;;
23406;SDS011;11876;53.438;18.942;2023-03-01T05:07:22;26.65;;;17.00;;
23406;SDS011;11876;53.438;18.942;2023-03-01T05:10:27;34.25;;;18.55;;
23406;SDS011;11876;53.438;18.942;2023-03-01T05:13:38;51.10;;;21.83;;
23406;SDS011;11876;53.438;18.942;2023-03-01T05:16:41;46.63;;;21.73;;
23406;SDS011;11876;53.438;18.942;2023-03-01T05:19:44;30.33;;;14.35;;
23406;SDS011;11876;53.438;18.942;2023-03-01T05:22:47;36.17;;;16.58;;
23406;SDS011;11876;53.438;18.942;2023-03-01T05:25:50;33.03;;;17.40;;
23406;SDS011;11876;53.438;18.942;2023-03-01T05:28:53;34.92;;;17.05;;
23406;SDS011;11876;53.438;18.942;2023-03-01T05:32:01;38.05;;;17.48;;
23406;SDS011;11876;53.438;18.942;2023-03-01T05:35:04;30.70;;;16.83;;
23406;SDS011;11876;53.438;18.942;2023-03-01T05:38:07;22.63;;;14.23;;
23406;SDS011;11876;53.438;18.942;2023-03-01T05:41:14;27.52;;;16.45;;
23406;SDS011;11876;53.438;18.942;2023-03-01T05:44:18;28.77;;;16.63;;
23406;SDS011;11876;53.438;18.942;2023-03-01T05:47:21;29.73;;;16.77;;
23406;SDS011;11876;53.438;18.942;2023-03-01T05:50:24;23.27;;;14.65;;
23406;SDS011;11876;53.438;18.942;2023-03-01T05:53:28;22.92;;;13.85;;
23406;SDS011;11876;53.438;18.942;2023-03-01T05:56:34;28.00;;;16.27;;
23406;SDS011;11876;53.438;18.942;2023-03-01T05:59:37;28.80;;;14.23;;
23406;SDS011;11876;53.438;18.942;2023-03-01T06:02:39;20.88;;;13.45;;
23406;SDS011;11876;53.438;18.942;2023-03-01T06:05:43;21.10;;;12.87;;
23406;SDS011;11876;53.438;18.942;2023-03-01T06:08:46;26.13;;;16.52;;
23406;SDS011;11876;53.438;18.942;2023-03-01T06:11:48;46.03;;;23.55;;
23406;SDS011;11876;53.438;18.942;2023-03-01T06:14:50;34.47;;;19.45;;
23406;SDS011;11876;53.438;18.942;2023-03-01T06:17:53;27.33;;;16.05;;
23406;SDS011;11876;53.438;18.942;2023-03-01T06:21:00;29.60;;;16.50;;
23406;SDS011;11876;53.438;18.942;2023-03-01T06:24:03;32.50;;;17.20;;
23406;SDS011;11876;53.438;18.942;2023-03-01T06:27:07;31.25;;;16.83;;
23406;SDS011;11876;53.438;18.942;2023-03-01T06:30:10;29.55;;;16.33;;
23406;SDS011;11876;53.438;18.942;2023-03-01T06:33:13;29.30;;;17.15;;
23406;SDS011;11876;53.438;18.942;2023-03-01T06:36:16;21.35;;;14.00;;
23406;SDS011;11876;53.438;18.942;2023-03-01T06:39:20;22.08;;;14.30;;
23406;SDS011;11876;53.438;18.942;2023-03-01T06:42:22;24.30;;;14.38;;
23406;SDS011;11876;53.438;18.942;2023-03-01T06:45:25;26.30;;;15.75;;
23406;SDS011;11876;53.438;18.942;2023-03-01T06:48:27;24.05;;;15.15;;
23406;SDS011;11876;53.438;18.942;2023-03-01T06:51:29;26.40;;;15.20;;
23406;SDS011;11876;53.438;18.942;2023-03-01T06:54:32;24.85;;;15.93;;
23406;SDS011;11876;53.438;18.942;2023-03-01T06:57:34;23.05;;;15.48;;
23406;SDS011;11876;53.438;18.942;2023-03-01T07:00:37;26.70;;;16.30;;
23406;SDS011;11876;53.438;18.942;2023-03-01T07:03:42;23.92;;;15.35;;
23406;SDS011;11876;53.438;18.942;2023-03-01T07:06:45;25.75;;;15.88;;
23406;SDS011;11876;53.438;18.942;2023-03-01T07:09:55;26.73;;;16.10;;
23406;SDS011;11876;53.438;18.942;2023-03-01T07:12:58;30.30;;;16.80;;
23406;SDS011;11876;53.438;18.942;2023-03-01T07:16:00;27.83;;;16.75;;
23406;SDS011;11876;53.438;18.942;2023-03-01T07:19:02;33.30;;;18.63;;
23406;SDS011;11876;53.438;18.942;2023-03-01T07:22:06;34.63;;;18.85;;
23406;SDS011;11876;53.438;18.942;2023-03-01T07:25:11;26.55;;;16.38;;
23406;SDS011;11876;53.438;18.942;2023-03-01T07:28:14;29.88;;;15.95;;
23406;SDS011;11876;53.438;18.942;2023-03-01T07:31:16;23.05;;;14.68;;
23406;SDS011;11876;53.438;18.942;2023-03-01T07:34:19;26.52;;;14.43;;
23406;SDS011;11876;53.438;18.942;2023-03-01T07:37:21;26.30;;;14.85;;
23406;SDS011;11876;53.438;18.942;2023-03-01T07:40:23;24.70;;;15.10;;
23406;SDS011;11876;53.438;18.942;2023-03-01T07:43:26;23.88;;;15.30;;
23406;SDS011;11876;53.438;18.942;2023-03-01T07:46:29;28.52;;;17.20;;
23406;SDS011;11876;53.438;18.942;2023-03-01T07:49:32;30.25;;;16.83;;
23406;SDS011;11876;53.438;18.942;2023-03-01T07:52:34;28.70;;;18.77;;
23406;SDS011;11876;53.438;18.942;2023-03-01T07:55:37;25.23;;;16.60;;
23406;SDS011;11876;53.438;18.942;2023-03-01T07:58:40;24.17;;;14.90;;
23406;SDS011;11876;53.438;18.942;2023-03-01T08:01:43;24.73;;;15.48;;
23406;SDS011;11876;53.438;18.942;2023-03-01T08:04:46;27.13;;;15.35;;
23406;SDS011;11876;53.438;18.942;2023-03-01T08:07:48;24.63;;;14.45;;
23406;SDS011;11876;53.438;18.942;2023-03-01T08:10:50;21.17;;;14.48;;
23406;SDS011;11876;53.438;18.942;2023-03-01T08:13:53;22.50;;;14.05;;
23406;SDS011;11876;53.438;18.942;2023-03-01T08:16:56;21.33;;;13.77;;
23406;SDS011;11876;53.438;18.942;2023-03-01T08:19:58;22.88;;;13.68;;
23406;SDS011;11876;53.438;18.942;2023-03-01T08:23:01;25.17;;;14.77;;
23406;SDS011;11876;53.438;18.942;2023-03-01T08:26:04;25.73;;;14.52;;
23406;SDS011;11876;53.438;18.942;2023-03-01T08:29:13;30.45;;;14.35;;
23406;SDS011;11876;53.438;18.942;2023-03-01T08:32:16;23.17;;;14.73;;
23406;SDS011;11876;53.438;18.942;2023-03-01T08:35:19;27.15;;;15.38;;
23406;SDS011;11876;53.438;18.942;2023-03-01T08:38:22;23.30;;;14.15;;
23406;SDS011;11876;53.438;18.942;2023-03-01T08:41:24;24.85;;;14.65;;
23406;SDS011;11876;53.438;18.942;2023-03-01T08:44:27;23.00;;;11.50;;
23406;SDS011;11876;53.438;18.942;2023-03-01T08:47:30;21.40;;;13.63;;
23406;SDS011;11876;53.438;18.942;2023-03-01T08:50:34;31.20;;;16.23;;
23406;SDS011;11876;53.438;18.942;2023-03-01T08:53:38;24.27;;;13.60;;
23406;SDS011;11876;53.438;18.942;2023-03-01T08:56:40;24.15;;;13.63;;
23406;SDS011;11876;53.438;18.942;2023-03-01T08:59:43;27.73;;;16.00;;
23406;SDS011;11876;53.438;18.942;2023-03-01T09:02:46;26.80;;;15.57;;
23406;SDS011;11876;53.438;18.942;2023-03-01T09:05:48;27.60;;;14.65;;
23406;SDS011;11876;53.438;18.942;2023-03-01T09:08:51;21.38;;;11.75;;
23406;SDS011;11876;53.438;18.942;2023-03-01T09:11:54;16.60;;;10.60;;
23406;SDS011;11876;53.438;18.942;2023-03-01T09:14:57;21.70;;;12.82;;
23406;SDS011;11876;53.438;18.942;2023-03-01T09:17:59;23.48;;;14.18;;
23406;SDS011;11876;53.438;18.942;2023-03-01T09:21:03;25.55;;;15.15;;
23406;SDS011;11876;53.438;18.942;2023-03-01T09:24:16;24.48;;;14.43;;
23406;SDS011;11876;53.438;18.942;2023-03-01T09:27:18;24.80;;;15.20;;
23406;SDS011;11876;53.438;18.942;2023-03-01T09:30:21;24.35;;;14.70;;
23406;SDS011;11876;53.438;18.942;2023-03-01T09:33:23;22.08;;;13.63;;
23406;SDS011;11876;53.438;18.942;2023-03-01T09:36:26;24.88;;;13.30;;
23406;SDS011;11876;53.438;18.942;2023-03-01T09:39:29;16.38;;;10.73;;
23406;SDS011;11876;53.438;18.942;2023-03-01T09:42:34;30.27;;;16.52;;
23406;SDS011;11876;53.438;18.942;2023-03-01T09:45:39;23.13;;;14.05;;
23406;SDS011;11876;53.438;18.942;2023-03-01T09:49:02;20.20;;;13.70;;
23406;SDS011;11876;53.438;18.942;2023-03-01T09:52:19;18.00;;;12.20;;
23406;SDS011;11876;53.438;18.942;2023-03-01T10:02:23;21.50;;;13.88;;
23406;SDS011;11876;53.438;18.942;2023-03-01T10:08:41;26.70;;;13.90;;
23406;SDS011;11876;53.438;18.942;2023-03-01T10:11:46;21.48;;;14.13;;
23406;SDS011;11876;53.438;18.942;2023-03-01T10:14:55;22.90;;;13.65;;
23406;SDS011;11876;53.438;18.942;2023-03-01T10:18:03;22.67;;;12.52;;
23406;SDS011;11876;53.438;18.942;2023-03-01T10:21:14;25.00;;;14.80;;
23406;SDS011;11876;53.438;18.942;2023-03-01T10:24:18;19.48;;;13.20;;
23406;SDS011;11876;53.438;18.942;2023-03-01T10:27:29;29.05;;;15.50;;
23406;SDS011;11876;53.438;18.942;2023-03-01T10:30:38;20.95;;;13.73;;
23406;SDS011;11876;53.438;18.942;2023-03-01T10:33:43;19.15;;;12.55;;
23406;SDS011;11876;53.438;18.942;2023-03-01T10:36:50;31.80;;;15.98;;
23406;SDS011;11876;53.438;18.942;2023-03-01T10:39:54;24.65;;;15.05;;
23406;SDS011;11876;53.438;18.942;2023-03-01T10:42:58;23.63;;;12.90;;
23406;SDS011;11876;53.438;18.942;2023-03-01T10:46:02;23.70;;;14.52;;
23406;SDS011;11876;53.438;18.942;2023-03-01T10:49:12;20.42;;;12.95;;
23406;SDS011;11876;53.438;18.942;2023-03-01T10:52:18;20.60;;;12.27;;
23406;SDS011;11876;53.438;18.942;2023-03-01T10:55:44;23.00;;;13.48;;
23406;SDS011;11876;53.438;18.942;2023-03-01T10:59:02;20.60;;;13.05;;
23406;SDS011;11876;53.438;18.942;2023-03-01T11:05:25;21.10;;;12.85;;
23406;SDS011;11876;53.438;18.942;2023-03-01T11:08:31;16.73;;;11.55;;
23406;SDS011;11876;53.438;18.942;2023-03-01T11:11:57;19.02;;;12.32;;
23406;SDS011;11876;53.438;18.942;2023-03-01T11:15:00;18.42;;;12.60;;
23406;SDS011;11876;53.438;18.942;2023-03-01T11:18:03;21.95;;;13.57;;
23406;SDS011;11876;53.438;18.942;2023-03-01T11:21:15;18.73;;;12.30;;
23406;SDS011;11876;53.438;18.942;2023-03-01T11:24:17;19.17;;;12.55;;
23406;SDS011;11876;53.438;18.942;2023-03-01T11:27:25;20.88;;;12.05;;
23406;SDS011;11876;53.438;18.942;2023-03-01T11:30:30;21.15;;;12.48;;
23406;SDS011;11876;53.438;18.942;2023-03-01T11:37:01;17.88;;;11.80;;
23406;SDS011;11876;53.438;18.942;2023-03-01T11:43:26;18.05;;;12.18;;
23406;SDS011;11876;53.438;18.942;2023-03-01T11:46:37;17.73;;;11.98;;
23406;SDS011;11876;53.438;18.942;2023-03-01T11:49:53;17.70;;;11.40;;
23406;SDS011;11876;53.438;18.942;2023-03-01T11:56:28;18.15;;;10.85;;
23406;SDS011;11876;53.438;18.942;2023-03-01T11:59:45;14.50;;;8.93;;
23406;SDS011;11876;53.438;18.942;2023-03-01T12:10:18;9.70;;;6.90;;
23406;SDS011;11876;53.438;18.942;2023-03-01T12:16:49;11.88;;;6.47;;
23406;SDS011;11876;53.438;18.942;2023-03-01T12:20:15;9.60;;;6.47;;
23406;SDS011;11876;53.438;18.942;2023-03-01T12:23:32;9.43;;;6.80;;
23406;SDS011;11876;53.438;18.942;2023-03-01T12:26:45;10.57;;;7.13;;
23406;SDS011;11876;53.438;18.942;2023-03-01T12:30:02;8.65;;;6.60;;
23406;SDS011;11876;53.438;18.942;2023-03-01T12:49:57;10.32;;;6.97;;
23406;SDS011;11876;53.438;18.942;2023-03-01T12:53:07;12.73;;;8.07;;
23406;SDS011;11876;53.438;18.942;2023-03-01T12:56:25;12.23;;;8.35;;
23406;SDS011;11876;53.438;18.942;2023-03-01T12:59:38;14.48;;;8.13;;
23406;SDS011;11876;53.438;18.942;2023-03-01T13:05:56;10.30;;;7.13;;
23406;SDS011;11876;53.438;18.942;2023-03-01T13:09:24;11.10;;;6.63;;
23406;SDS011;11876;53.438;18.942;2023-03-01T13:12:41;10.07;;;6.43;;
23406;SDS011;11876;53.438;18.942;2023-03-01T13:15:48;9.95;;;6.15;;
23406;SDS011;11876;53.438;18.942;2023-03-01T13:19:05;7.95;;;6.22;;
23406;SDS011;11876;53.438;18.942;2023-03-01T13:22:25;7.00;;;5.97;;
23406;SDS011;11876;53.438;18.942;2023-03-01T13:25:29;7.88;;;5.90;;
23406;SDS011;11876;53.438;18.942;2023-03-01T13:34:56;7.47;;;5.63;;
23406;SDS011;11876;53.438;18.942;2023-03-01T13:41:50;9.43;;;5.25;;
23406;SDS011;11876;53.438;18.942;2023-03-01T13:44:53;16.00;;;6.07;;
23406;SDS011;11876;53.438;18.942;2023-03-01T13:48:00;17.40;;;5.45;;
23406;SDS011;11876;53.438;18.942;2023-03-01T13:51:09;13.68;;;5.68;;
23406;SDS011;11876;53.438;18.942;2023-03-01T13:54:13;13.00;;;4.95;;
23406;SDS011;11876;53.438;18.942;2023-03-01T13:57:20;8.90;;;4.68;;
23406;SDS011;11876;53.438;18.942;2023-03-01T14:03:41;7.18;;;5.18;;
23406;SDS011;11876;53.438;18.942;2023-03-01T14:06:44;13.48;;;5.10;;
23406;SDS011;11876;53.438;18.942;2023-03-01T14:09:47;8.35;;;5.20;;
23406;SDS011;11876;53.438;18.942;2023-03-01T14:16:53;36.58;;;7.70;;
23406;SDS011;11876;53.438;18.942;2023-03-01T14:23:23;8.85;;;5.93;;
23406;SDS011;11876;53.438;18.942;2023-03-01T14:26:27;17.83;;;6.05;;
23406;SDS011;11876;53.438;18.942;2023-03-01T14:29:34;12.00;;;5.65;;
23406;SDS011;11876;53.438;18.942;2023-03-01T14:32:38;15.75;;;6.95;;
23406;SDS011;11876;53.438;18.942;2023-03-01T14:35:40;11.48;;;6.88;;
23406;SDS011;11876;53.438;18.942;2023-03-01T14:38:44;8.20;;;5.10;;
23406;SDS011;11876;53.438;18.942;2023-03-01T14:41:48;52.15;;;12.10;;
23406;SDS011;11876;53.438;18.942;2023-03-01T14:44:53;24.58;;;7.90;;
23406;SDS011;11876;53.438;18.942;2023-03-01T14:47:58;8.30;;;5.88;;
23406;SDS011;11876;53.438;18.942;2023-03-01T14:51:01;6.90;;;5.85;;
23406;SDS011;11876;53.438;18.942;2023-03-01T14:54:27;17.08;;;7.22;;
23406;SDS011;11876;53.438;18.942;2023-03-01T14:57:32;14.93;;;6.70;;
23406;SDS011;11876;53.438;18.942;2023-03-01T15:00:34;22.73;;;7.97;;
23406;SDS011;11876;53.438;18.942;2023-03-01T15:03:41;77.72;;;14.20;;
23406;SDS011;11876;53.438;18.942;2023-03-01T15:06:45;12.85;;;6.65;;
23406;SDS011;11876;53.438;18.942;2023-03-01T15:09:47;12.27;;;7.32;;
23406;SDS011;11876;53.438;18.942;2023-03-01T15:12:50;10.63;;;7.43;;
23406;SDS011;11876;53.438;18.942;2023-03-01T15:16:00;20.73;;;8.25;;
23406;SDS011;11876;53.438;18.942;2023-03-01T15:19:15;10.38;;;7.03;;
23406;SDS011;11876;53.438;18.942;2023-03-01T15:22:18;13.57;;;8.80;;
23406;SDS011;11876;53.438;18.942;2023-03-01T15:25:24;16.73;;;8.60;;
23406;SDS011;11876;53.438;18.942;2023-03-01T15:28:31;16.15;;;9.77;;
23406;SDS011;11876;53.438;18.942;2023-03-01T15:31:53;15.15;;;9.55;;
23406;SDS011;11876;53.438;18.942;2023-03-01T15:38:53;23.40;;;12.43;;
23406;SDS011;11876;53.438;18.942;2023-03-01T15:41:58;16.50;;;10.68;;
23406;SDS011;11876;53.438;18.942;2023-03-01T15:48:22;26.15;;;12.95;;
23406;SDS011;11876;53.438;18.942;2023-03-01T15:51:34;39.00;;;16.67;;
23406;SDS011;11876;53.438;18.942;2023-03-01T15:54:38;35.75;;;14.82;;
23406;SDS011;11876;53.438;18.942;2023-03-01T15:57:42;34.95;;;15.38;;
23406;SDS011;11876;53.438;18.942;2023-03-01T16:00:45;57.50;;;25.98;;
23406;SDS011;11876;53.438;18.942;2023-03-01T16:04:01;116.43;;;46.72;;
23406;SDS011;11876;53.438;18.942;2023-03-01T16:07:05;87.03;;;36.58;;
23406;SDS011;11876;53.438;18.942;2023-03-01T16:10:07;65.95;;;27.65;;
23406;SDS011;11876;53.438;18.942;2023-03-01T16:13:11;35.75;;;17.63;;
23406;SDS011;11876;53.438;18.942;2023-03-01T16:16:14;45.55;;;12.75;;
23406;SDS011;11876;53.438;18.942;2023-03-01T16:19:17;40.15;;;12.00;;
23406;SDS011;11876;53.438;18.942;2023-03-01T16:22:20;48.30;;;14.32;;
23406;SDS011;11876;53.438;18.942;2023-03-01T16:25:27;43.08;;;14.75;;
23406;SDS011;11876;53.438;18.942;2023-03-01T16:28:29;32.22;;;12.25;;
23406;SDS011;11876;53.438;18.942;2023-03-01T16:31:32;34.65;;;11.15;;
23406;SDS011;11876;53.438;18.942;2023-03-01T16:34:36;38.20;;;10.75;;
23406;SDS011;11876;53.438;18.942;2023-03-01T16:37:38;27.67;;;17.15;;
23406;SDS011;11876;53.438;18.942;2023-03-01T16:40:43;29.85;;;15.55;;
23406;SDS011;11876;53.438;18.942;2023-03-01T16:43:49;24.13;;;15.27;;
23406;SDS011;11876;53.438;18.942;2023-03-01T16:46:53;65.72;;;26.63;;
23406;SDS011;11876;53.438;18.942;2023-03-01T16:49:55;53.95;;;20.15;;
23406;SDS011;11876;53.438;18.942;2023-03-01T16:52:58;40.22;;;20.17;;
23406;SDS011;11876;53.438;18.942;2023-03-01T16:56:00;33.47;;;17.23;;
23406;SDS011;11876;53.438;18.942;2023-03-01T16:59:03;37.03;;;16.88;;
23406;SDS011;11876;53.438;18.942;2023-03-01T17:02:10;28.75;;;16.05;;
23406;SDS011;11876;53.438;18.942;2023-03-01T17:05:14;32.08;;;16.88;;
23406;SDS011;11876;53.438;18.942;2023-03-01T17:08:17;35.53;;;16.60;;
23406;SDS011;11876;53.438;18.942;2023-03-01T17:11:20;38.80;;;17.23;;
23406;SDS011;11876;53.438;18.942;2023-03-01T17:14:23;33.15;;;17.35;;
23406;SDS011;11876;53.438;18.942;2023-03-01T17:17:26;25.75;;;14.82;;
23406;SDS011;11876;53.438;18.942;2023-03-01T17:20:29;25.63;;;15.32;;
23406;SDS011;11876;53.438;18.942;2023-03-01T17:23:31;32.13;;;16.48;;
23406;SDS011;11876;53.438;18.942;2023-03-01T17:26:35;33.00;;;16.33;;
23406;SDS011;11876;53.438;18.942;2023-03-01T17:29:38;31.52;;;16.38;;
23406;SDS011;11876;53.438;18.942;2023-03-01T17:32:42;33.50;;;18.33;;
23406;SDS011;11876;53.438;18.942;2023-03-01T17:35:45;33.93;;;19.20;;
23406;SDS011;11876;53.438;18.942;2023-03-01T17:38:48;33.47;;;17.67;;
23406;SDS011;11876;53.438;18.942;2023-03-01T17:41:52;34.42;;;17.92;;
23406;SDS011;11876;53.438;18.942;2023-03-01T17:44:54;29.63;;;17.65;;
23406;SDS011;11876;53.438;18.942;2023-03-01T17:47:58;26.67;;;16.17;;
23406;SDS011;11876;53.438;18.942;2023-03-01T17:51:04;33.05;;;18.65;;
23406;SDS011;11876;53.438;18.942;2023-03-01T17:54:08;32.20;;;18.60;;
23406;SDS011;11876;53.438;18.942;2023-03-01T17:57:10;41.05;;;21.05;;
23406;SDS011;11876;53.438;18.942;2023-03-01T18:00:14;35.03;;;18.67;;
23406;SDS011;11876;53.438;18.942;2023-03-01T18:03:17;46.22;;;26.25;;
23406;SDS011;11876;53.438;18.942;2023-03-01T18:06:22;39.75;;;23.42;;
23406;SDS011;11876;53.438;18.942;2023-03-01T18:09:26;36.30;;;21.08;;
23406;SDS011;11876;53.438;18.942;2023-03-01T18:12:30;36.78;;;21.95;;
23406;SDS011;11876;53.438;18.942;2023-03-01T18:15:33;40.97;;;24.00;;
23406;SDS011;11876;53.438;18.942;2023-03-01T18:18:36;36.28;;;22.67;;
23406;SDS011;11876;53.438;18.942;2023-03-01T18:21:40;38.10;;;22.58;;
23406;SDS011;11876;53.438;18.942;2023-03-01T18:24:42;34.03;;;20.67;;
23406;SDS011;11876;53.438;18.942;2023-03-01T18:27:46;34.08;;;22.45;;
23406;SDS011;11876;53.438;18.942;2023-03-01T18:30:48;31.00;;;21.25;;
23406;SDS011;11876;53.438;18.942;2023-03-01T18:33:58;34.33;;;21.40;;
23406;SDS011;11876;53.438;18.942;2023-03-01T18:37:02;35.35;;;21.45;;
23406;SDS011;11876;53.438;18.942;2023-03-01T18:40:10;32.30;;;20.27;;
23406;SDS011;11876;53.438;18.942;2023-03-01T18:43:14;29.48;;;20.52;;
23406;SDS011;11876;53.438;18.942;2023-03-01T18:46:17;33.28;;;20.90;;
23406;SDS011;11876;53.438;18.942;2023-03-01T18:49:24;33.20;;;21.08;;
23406;SDS011;11876;53.438;18.942;2023-03-01T18:52:27;36.95;;;22.45;;
23406;SDS011;11876;53.438;18.942;2023-03-01T18:55:30;30.90;;;19.98;;
23406;SDS011;11876;53.438;18.942;2023-03-01T18:58:37;32.85;;;20.63;;
23406;SDS011;11876;53.438;18.942;2023-03-01T19:01:39;34.00;;;22.27;;
23406;SDS011;11876;53.438;18.942;2023-03-01T19:04:42;31.00;;;20.42;;
23406;SDS011;11876;53.438;18.942;2023-03-01T19:07:44;36.03;;;22.20;;
23406;SDS011;11876;53.438;18.942;2023-03-01T19:10:54;37.85;;;24.55;;
23406;SDS011;11876;53.438;18.942;2023-03-01T19:14:00;42.13;;;25.30;;
23406;SDS011;11876;53.438;18.942;2023-03-01T19:17:04;40.08;;;23.52;;